sensor_id;sensor_type;location;lat;lon;timestamp;pressure;altitude;pressure_sealevel;temperature;humidity
24892;BME280;12954;50.688;10.908;2022-12-07T00:01:36;95435.28;;;1.19;58.61
24892;BME280;12954;50.688;10.908;2022-12-07T00:04:07;95422.66;;;1.14;58.78
24892;BME280;12954;50.688;10.908;2022-12-07T00:06:39;95372.66;;;0.81;59.04
24892;BME280;12954;50.688;10.908;2022-12-07T00:09:10;95407.78;;;1.13;59.17
24892;BME280;12954;50.688;10.908;2022-12-07T00:11:39;95388.53;;;0.99;59.21
24892;BME280;12954;50.688;10.908;2022-12-07T00:14:11;95379.03;;;0.92;59.04
24892;BME280;12954;50.688;10.908;2022-12-07T00:16:42;95401.97;;;1.04;59.32
24892;BME280;12954;50.688;10.908;2022-12-07T00:19:12;95401.53;;;1.07;59.31
24892;BME280;12954;50.688;10.908;2022-12-07T00:21:42;95387.88;;;1.04;59.24
24892;BME280;12954;50.688;10.908;2022-12-07T00:24:11;95233.75;;;0.10;58.80
24892;BME280;12954;50.688;10.908;2022-12-07T00:26:41;95384.03;;;1.00;59.20
24892;BME280;12954;50.688;10.908;2022-12-07T00:29:14;95391.44;;;0.98;59.24
24892;BME280;12954;50.688;10.908;2022-12-07T00:31:45;95334.47;;;0.64;59.08
24892;BME280;12954;50.688;10.908;2022-12-07T00:34:17;95355.41;;;0.72;59.26
24892;BME280;12954;50.688;10.908;2022-12-07T00:36:46;95385.38;;;0.91;59.50
24892;BME280;12954;50.688;10.908;2022-12-07T00:39:14;95341.91;;;0.74;59.22
24892;BME280;12954;50.688;10.908;2022-12-07T00:41:43;95348.41;;;0.78;59.33
24892;BME280;12954;50.688;10.908;2022-12-07T00:44:11;95367.03;;;0.89;59.40
24892;BME280;12954;50.688;10.908;2022-12-07T00:46:40;95374.75;;;0.91;59.17
24892;BME280;12954;50.688;10.908;2022-12-07T00:49:10;95358.00;;;0.90;59.32
24892;BME280;12954;50.688;10.908;2022-12-07T00:51:39;95352.69;;;0.90;59.38
24892;BME280;12954;50.688;10.908;2022-12-07T00:54:07;95354.91;;;0.93;59.24
24892;BME280;12954;50.688;10.908;2022-12-07T00:56:35;95346.94;;;0.93;59.14
24892;BME280;12954;50.688;10.908;2022-12-07T00:59:04;95343.72;;;0.91;59.13
24892;BME280;12954;50.688;10.908;2022-12-07T01:01:35;95356.41;;;0.89;59.23
24892;BME280;12954;50.688;10.908;2022-12-07T01:04:05;95325.59;;;0.70;59.20
24892;BME280;12954;50.688;10.908;2022-12-07T01:06:35;95348.31;;;0.84;59.32
24892;BME280;12954;50.688;10.908;2022-12-07T01:09:04;95349.56;;;0.82;59.30
24892;BME280;12954;50.688;10.908;2022-12-07T01:11:33;95323.19;;;0.69;59.41
24892;BME280;12954;50.688;10.908;2022-12-07T01:14:02;95336.38;;;0.75;59.41
24892;BME280;12954;50.688;10.908;2022-12-07T01:16:31;95297.06;;;0.54;59.38
24892;BME280;12954;50.688;10.908;2022-12-07T01:19:00;95300.59;;;0.48;59.47
24892;BME280;12954;50.688;10.908;2022-12-07T01:21:35;95332.63;;;0.65;59.65
24892;BME280;12954;50.688;10.908;2022-12-07T01:24:06;95335.97;;;0.60;59.58
24892;BME280;12954;50.688;10.908;2022-12-07T01:26:35;95317.22;;;0.55;59.75
24892;BME280;12954;50.688;10.908;2022-12-07T01:29:04;95314.56;;;0.55;59.95
24892;BME280;12954;50.688;10.908;2022-12-07T01:31:33;95323.34;;;0.56;60.01
24892;BME280;12954;50.688;10.908;2022-12-07T01:34:01;95309.06;;;0.57;59.98
24892;BME280;12954;50.688;10.908;2022-12-07T01:36:31;95324.97;;;0.57;60.17
24892;BME280;12954;50.688;10.908;2022-12-07T01:39:04;95330.28;;;0.57;60.22
24892;BME280;12954;50.688;10.908;2022-12-07T01:41:35;95328.31;;;0.52;60.54
24892;BME280;12954;50.688;10.908;2022-12-07T01:44:16;95324.63;;;0.53;60.59
24892;BME280;12954;50.688;10.908;2022-12-07T01:46:46;95323.66;;;0.47;60.74
24892;BME280;12954;50.688;10.908;2022-12-07T01:49:20;95324.97;;;0.57;60.76
24892;BME280;12954;50.688;10.908;2022-12-07T01:51:50;95320.84;;;0.61;60.67
24892;BME280;12954;50.688;10.908;2022-12-07T01:54:22;95319.88;;;0.55;60.72
24892;BME280;12954;50.688;10.908;2022-12-07T01:56:52;95322.25;;;0.63;60.65
24892;BME280;12954;50.688;10.908;2022-12-07T01:59:24;95300.28;;;0.56;60.81
24892;BME280;12954;50.688;10.908;2022-12-07T02:01:54;95321.81;;;0.66;60.64
24892;BME280;12954;50.688;10.908;2022-12-07T02:04:23;95276.13;;;0.46;60.70
24892;BME280;12954;50.688;10.908;2022-12-07T02:06:52;95306.00;;;0.71;60.78
24892;BME280;12954;50.688;10.908;2022-12-07T02:09:23;95273.28;;;0.59;60.78
24892;BME280;12954;50.688;10.908;2022-12-07T02:11:52;95290.16;;;0.65;60.83
24892;BME280;12954;50.688;10.908;2022-12-07T02:14:22;95295.50;;;0.76;60.88
24892;BME280;12954;50.688;10.908;2022-12-07T02:17:01;95291.59;;;0.79;60.93
24892;BME280;12954;50.688;10.908;2022-12-07T02:19:52;95296.13;;;0.78;61.01
24892;BME280;12954;50.688;10.908;2022-12-07T02:25:33;95294.72;;;0.87;60.83
24892;BME280;12954;50.688;10.908;2022-12-07T02:28:14;95275.84;;;0.95;60.78
24892;BME280;12954;50.688;10.908;2022-12-07T02:30:50;95280.78;;;0.92;60.60
24892;BME280;12954;50.688;10.908;2022-12-07T02:33:25;95272.34;;;0.83;60.60
24892;BME280;12954;50.688;10.908;2022-12-07T02:36:00;95271.44;;;0.89;60.98
24892;BME280;12954;50.688;10.908;2022-12-07T02:38:37;95289.09;;;0.84;61.08
24892;BME280;12954;50.688;10.908;2022-12-07T02:41:11;95254.38;;;0.67;61.11
24892;BME280;12954;50.688;10.908;2022-12-07T02:43:42;95270.47;;;0.72;61.49
24892;BME280;12954;50.688;10.908;2022-12-07T02:46:14;95289.91;;;0.84;61.25
24892;BME280;12954;50.688;10.908;2022-12-07T02:48:44;95277.63;;;0.72;61.61
24892;BME280;12954;50.688;10.908;2022-12-07T02:51:13;95283.75;;;0.72;61.58
24892;BME280;12954;50.688;10.908;2022-12-07T02:53:43;95282.25;;;0.76;61.56
24892;BME280;12954;50.688;10.908;2022-12-07T02:56:18;95284.44;;;0.79;61.38
24892;BME280;12954;50.688;10.908;2022-12-07T02:58:57;95267.94;;;0.77;61.33
24892;BME280;12954;50.688;10.908;2022-12-07T03:01:34;95274.28;;;0.76;61.39
24892;BME280;12954;50.688;10.908;2022-12-07T03:04:14;95275.34;;;0.75;61.49
24892;BME280;12954;50.688;10.908;2022-12-07T03:06:51;95265.28;;;0.77;61.46
24892;BME280;12954;50.688;10.908;2022-12-07T03:09:28;95221.91;;;0.42;61.57
24892;BME280;12954;50.688;10.908;2022-12-07T03:12:07;95276.81;;;0.71;61.40
24892;BME280;12954;50.688;10.908;2022-12-07T03:14:43;95281.66;;;0.74;61.63
24892;BME280;12954;50.688;10.908;2022-12-07T03:17:19;95223.38;;;0.38;61.65
24892;BME280;12954;50.688;10.908;2022-12-07T03:19:49;95199.50;;;0.38;61.50
24892;BME280;12954;50.688;10.908;2022-12-07T03:22:20;95249.84;;;0.56;61.76
24892;BME280;12954;50.688;10.908;2022-12-07T03:24:52;95262.97;;;0.69;61.82
24892;BME280;12954;50.688;10.908;2022-12-07T03:27:24;95258.50;;;0.81;61.60
24892;BME280;12954;50.688;10.908;2022-12-07T03:29:56;95259.53;;;0.80;61.75
24892;BME280;12954;50.688;10.908;2022-12-07T03:32:33;95257.56;;;0.87;61.73
24892;BME280;12954;50.688;10.908;2022-12-07T03:35:09;95250.66;;;0.86;61.69
24892;BME280;12954;50.688;10.908;2022-12-07T03:37:45;95240.16;;;0.91;61.65
24892;BME280;12954;50.688;10.908;2022-12-07T03:40:18;95248.69;;;0.93;61.42
24892;BME280;12954;50.688;10.908;2022-12-07T03:42:50;95234.00;;;0.79;61.56
24892;BME280;12954;50.688;10.908;2022-12-07T03:45:23;95255.06;;;0.92;61.58
24892;BME280;12954;50.688;10.908;2022-12-07T03:48:00;95226.19;;;0.84;61.51
24892;BME280;12954;50.688;10.908;2022-12-07T03:50:38;95202.13;;;0.68;61.52
24892;BME280;12954;50.688;10.908;2022-12-07T03:53:14;95258.28;;;0.94;61.75
24892;BME280;12954;50.688;10.908;2022-12-07T03:55:46;95222.94;;;0.82;61.68
24892;BME280;12954;50.688;10.908;2022-12-07T03:58:19;95257.38;;;1.00;61.57
24892;BME280;12954;50.688;10.908;2022-12-07T04:00:49;95253.69;;;1.01;61.58
24892;BME280;12954;50.688;10.908;2022-12-07T04:03:19;95234.50;;;0.99;61.54
24892;BME280;12954;50.688;10.908;2022-12-07T04:05:47;95235.81;;;1.20;61.11
24892;BME280;12954;50.688;10.908;2022-12-07T04:08:16;95237.44;;;1.21;61.09
24892;BME280;12954;50.688;10.908;2022-12-07T04:10:45;95252.56;;;1.21;60.91
24892;BME280;12954;50.688;10.908;2022-12-07T04:13:13;95244.00;;;1.19;61.07
24892;BME280;12954;50.688;10.908;2022-12-07T04:15:42;95248.97;;;1.15;61.32
24892;BME280;12954;50.688;10.908;2022-12-07T04:18:11;95248.75;;;1.17;61.29
24892;BME280;12954;50.688;10.908;2022-12-07T04:20:40;95253.00;;;1.18;61.34
24892;BME280;12954;50.688;10.908;2022-12-07T04:23:09;95244.81;;;1.19;61.58
24892;BME280;12954;50.688;10.908;2022-12-07T04:25:38;95241.94;;;1.21;61.42
24892;BME280;12954;50.688;10.908;2022-12-07T04:28:07;95238.25;;;1.22;61.50
24892;BME280;12954;50.688;10.908;2022-12-07T04:30:35;95234.53;;;1.23;61.51
24892;BME280;12954;50.688;10.908;2022-12-07T04:33:04;95230.03;;;1.23;61.57
24892;BME280;12954;50.688;10.908;2022-12-07T04:35:32;95229.09;;;1.29;61.46
24892;BME280;12954;50.688;10.908;2022-12-07T04:38:02;95227.84;;;1.32;61.28
24892;BME280;12954;50.688;10.908;2022-12-07T04:40:31;95231.41;;;1.26;61.69
24892;BME280;12954;50.688;10.908;2022-12-07T04:42:59;95207.50;;;1.02;61.77
24892;BME280;12954;50.688;10.908;2022-12-07T04:45:27;95229.22;;;1.23;61.88
24892;BME280;12954;50.688;10.908;2022-12-07T04:47:56;95238.13;;;1.17;61.88
24892;BME280;12954;50.688;10.908;2022-12-07T04:50:24;95225.63;;;1.17;62.02
24892;BME280;12954;50.688;10.908;2022-12-07T04:52:53;95224.03;;;1.16;62.02
24892;BME280;12954;50.688;10.908;2022-12-07T04:55:22;95226.91;;;1.15;62.05
24892;BME280;12954;50.688;10.908;2022-12-07T04:57:51;95227.50;;;1.17;62.28
24892;BME280;12954;50.688;10.908;2022-12-07T05:00:19;95233.50;;;1.12;62.15
24892;BME280;12954;50.688;10.908;2022-12-07T05:02:48;95241.25;;;1.14;62.22
24892;BME280;12954;50.688;10.908;2022-12-07T05:05:16;95224.84;;;1.17;62.26
24892;BME280;12954;50.688;10.908;2022-12-07T05:07:45;95226.44;;;1.18;62.02
24892;BME280;12954;50.688;10.908;2022-12-07T05:10:13;95234.41;;;1.18;62.01
24892;BME280;12954;50.688;10.908;2022-12-07T05:12:43;95228.06;;;1.19;61.97
24892;BME280;12954;50.688;10.908;2022-12-07T05:15:12;95227.84;;;1.20;61.87
24892;BME280;12954;50.688;10.908;2022-12-07T05:17:41;95231.53;;;1.19;61.99
24892;BME280;12954;50.688;10.908;2022-12-07T05:20:10;95227.25;;;1.18;62.04
24892;BME280;12954;50.688;10.908;2022-12-07T05:22:38;95181.72;;;0.91;62.18
24892;BME280;12954;50.688;10.908;2022-12-07T05:25:08;95219.53;;;1.17;62.19
24892;BME280;12954;50.688;10.908;2022-12-07T05:27:36;95222.19;;;1.17;62.27
24892;BME280;12954;50.688;10.908;2022-12-07T05:30:08;95223.22;;;1.16;62.26
24892;BME280;12954;50.688;10.908;2022-12-07T05:32:36;95220.31;;;1.17;62.42
24892;BME280;12954;50.688;10.908;2022-12-07T05:35:05;95230.72;;;1.19;62.26
24892;BME280;12954;50.688;10.908;2022-12-07T05:37:34;95138.53;;;0.73;61.71
24892;BME280;12954;50.688;10.908;2022-12-07T05:40:03;95224.16;;;1.33;61.91
24892;BME280;12954;50.688;10.908;2022-12-07T05:42:32;95213.72;;;1.20;61.98
24892;BME280;12954;50.688;10.908;2022-12-07T05:45:00;95228.53;;;1.27;62.02
24892;BME280;12954;50.688;10.908;2022-12-07T05:47:30;95238.34;;;1.27;61.92
24892;BME280;12954;50.688;10.908;2022-12-07T05:49:59;95178.41;;;0.96;62.05
24892;BME280;12954;50.688;10.908;2022-12-07T05:52:27;95229.94;;;1.30;62.21
24892;BME280;12954;50.688;10.908;2022-12-07T05:54:56;95230.75;;;1.42;61.86
24892;BME280;12954;50.688;10.908;2022-12-07T05:57:24;95222.41;;;1.38;61.82
24892;BME280;12954;50.688;10.908;2022-12-07T05:59:53;95230.84;;;1.35;62.15
24892;BME280;12954;50.688;10.908;2022-12-07T06:02:21;95235.94;;;1.37;62.29
24892;BME280;12954;50.688;10.908;2022-12-07T06:04:51;95220.09;;;1.30;62.34
24892;BME280;12954;50.688;10.908;2022-12-07T06:07:19;95222.75;;;1.42;62.41
24892;BME280;12954;50.688;10.908;2022-12-07T06:09:47;95222.31;;;1.45;62.18
24892;BME280;12954;50.688;10.908;2022-12-07T06:12:16;95211.56;;;1.28;62.56
24892;BME280;12954;50.688;10.908;2022-12-07T06:15:02;95236.63;;;1.44;62.73
24892;BME280;12954;50.688;10.908;2022-12-07T06:17:31;95236.28;;;1.52;62.66
24892;BME280;12954;50.688;10.908;2022-12-07T06:20:00;95240.66;;;1.46;62.78
24892;BME280;12954;50.688;10.908;2022-12-07T06:22:30;95230.84;;;1.47;63.07
24892;BME280;12954;50.688;10.908;2022-12-07T06:24:58;95217.56;;;1.35;63.01
24892;BME280;12954;50.688;10.908;2022-12-07T06:27:34;95213.28;;;1.23;63.08
24892;BME280;12954;50.688;10.908;2022-12-07T06:30:03;95243.78;;;1.43;63.03
24892;BME280;12954;50.688;10.908;2022-12-07T06:32:33;95220.94;;;1.31;62.99
24892;BME280;12954;50.688;10.908;2022-12-07T06:35:04;95245.06;;;1.41;63.31
24892;BME280;12954;50.688;10.908;2022-12-07T06:37:33;95254.56;;;1.48;63.24
24892;BME280;12954;50.688;10.908;2022-12-07T06:40:03;95262.28;;;1.50;63.26
24892;BME280;12954;50.688;10.908;2022-12-07T06:42:31;95265.41;;;1.58;62.62
24892;BME280;12954;50.688;10.908;2022-12-07T06:45:00;95265.75;;;1.62;62.53
24892;BME280;12954;50.688;10.908;2022-12-07T06:47:28;95261.47;;;1.49;62.95
24892;BME280;12954;50.688;10.908;2022-12-07T06:50:09;95257.31;;;1.53;62.68
24892;BME280;12954;50.688;10.908;2022-12-07T06:52:38;95261.81;;;1.53;62.90
24892;BME280;12954;50.688;10.908;2022-12-07T06:55:07;95259.28;;;1.58;63.92
24892;BME280;12954;50.688;10.908;2022-12-07T06:57:35;95247.50;;;1.54;64.30
24892;BME280;12954;50.688;10.908;2022-12-07T07:00:05;95268.19;;;1.75;63.95
24892;BME280;12954;50.688;10.908;2022-12-07T07:02:33;95261.13;;;1.69;63.78
24892;BME280;12954;50.688;10.908;2022-12-07T07:05:02;95275.34;;;1.63;63.81
24892;BME280;12954;50.688;10.908;2022-12-07T07:07:32;95280.06;;;1.61;63.89
24892;BME280;12954;50.688;10.908;2022-12-07T07:10:20;95268.66;;;1.60;64.03
24892;BME280;12954;50.688;10.908;2022-12-07T07:12:48;95267.84;;;1.60;64.11
24892;BME280;12954;50.688;10.908;2022-12-07T07:15:23;95219.09;;;1.31;63.92
24892;BME280;12954;50.688;10.908;2022-12-07T07:17:51;95198.16;;;1.12;63.90
24892;BME280;12954;50.688;10.908;2022-12-07T07:20:19;95261.00;;;1.64;63.86
24892;BME280;12954;50.688;10.908;2022-12-07T07:22:49;95253.94;;;1.58;63.78
24892;BME280;12954;50.688;10.908;2022-12-07T07:25:18;95262.06;;;1.63;63.95
24892;BME280;12954;50.688;10.908;2022-12-07T07:27:46;95239.75;;;1.41;63.76
24892;BME280;12954;50.688;10.908;2022-12-07T07:30:15;95262.63;;;1.65;63.70
24892;BME280;12954;50.688;10.908;2022-12-07T07:32:44;95265.28;;;1.65;63.66
24892;BME280;12954;50.688;10.908;2022-12-07T07:35:13;95261.47;;;1.61;63.76
24892;BME280;12954;50.688;10.908;2022-12-07T07:37:41;95241.59;;;1.40;63.67
24892;BME280;12954;50.688;10.908;2022-12-07T07:40:11;95274.28;;;1.64;63.46
24892;BME280;12954;50.688;10.908;2022-12-07T07:42:40;95276.50;;;1.67;63.60
24892;BME280;12954;50.688;10.908;2022-12-07T07:45:09;95287.94;;;1.79;63.00
24892;BME280;12954;50.688;10.908;2022-12-07T07:47:37;95282.06;;;1.77;62.54
24892;BME280;12954;50.688;10.908;2022-12-07T07:50:07;95282.88;;;1.66;63.07
24892;BME280;12954;50.688;10.908;2022-12-07T07:52:35;95258.94;;;1.43;63.39
24892;BME280;12954;50.688;10.908;2022-12-07T07:55:04;95254.75;;;1.35;63.90
24892;BME280;12954;50.688;10.908;2022-12-07T07:57:37;95275.47;;;1.56;63.88
24892;BME280;12954;50.688;10.908;2022-12-07T08:00:08;95274.75;;;1.61;63.95
24892;BME280;12954;50.688;10.908;2022-12-07T08:02:36;95251.66;;;1.50;63.76
24892;BME280;12954;50.688;10.908;2022-12-07T08:05:06;95278.13;;;1.80;63.12
24892;BME280;12954;50.688;10.908;2022-12-07T08:07:35;95278.56;;;1.77;63.23
24892;BME280;12954;50.688;10.908;2022-12-07T08:10:04;95276.72;;;1.77;63.35
24892;BME280;12954;50.688;10.908;2022-12-07T08:12:37;95278.69;;;1.82;63.06
24892;BME280;12954;50.688;10.908;2022-12-07T08:15:28;95278.47;;;1.83;63.53
24892;BME280;12954;50.688;10.908;2022-12-07T08:17:56;95269.44;;;1.84;63.09
24892;BME280;12954;50.688;10.908;2022-12-07T08:20:25;95264.84;;;1.91;62.67
24892;BME280;12954;50.688;10.908;2022-12-07T08:22:54;95282.16;;;2.05;61.58
24892;BME280;12954;50.688;10.908;2022-12-07T08:25:22;95283.34;;;1.86;61.73
24892;BME280;12954;50.688;10.908;2022-12-07T08:27:53;95283.22;;;1.81;61.52
24892;BME280;12954;50.688;10.908;2022-12-07T08:30:22;95274.19;;;1.71;61.95
24892;BME280;12954;50.688;10.908;2022-12-07T08:32:51;95277.56;;;1.66;62.14
24892;BME280;12954;50.688;10.908;2022-12-07T08:35:20;95256.84;;;1.56;62.21
24892;BME280;12954;50.688;10.908;2022-12-07T08:37:48;95279.16;;;1.67;62.21
24892;BME280;12954;50.688;10.908;2022-12-07T08:40:16;95291.31;;;1.75;62.10
24892;BME280;12954;50.688;10.908;2022-12-07T08:42:48;95260.31;;;1.57;61.85
24892;BME280;12954;50.688;10.908;2022-12-07T08:45:19;95289.78;;;1.79;62.26
24892;BME280;12954;50.688;10.908;2022-12-07T08:47:56;95289.56;;;1.80;62.35
24892;BME280;12954;50.688;10.908;2022-12-07T08:50:25;95286.94;;;1.92;62.11
24892;BME280;12954;50.688;10.908;2022-12-07T08:52:55;95271.75;;;1.81;62.04
24892;BME280;12954;50.688;10.908;2022-12-07T08:55:25;95280.09;;;2.07;61.81
24892;BME280;12954;50.688;10.908;2022-12-07T08:57:56;95281.50;;;1.98;61.67
24892;BME280;12954;50.688;10.908;2022-12-07T09:00:27;95257.66;;;1.80;61.68
24892;BME280;12954;50.688;10.908;2022-12-07T09:02:55;95293.16;;;1.97;61.95
24892;BME280;12954;50.688;10.908;2022-12-07T09:05:24;95292.81;;;2.05;62.03
24892;BME280;12954;50.688;10.908;2022-12-07T09:07:55;95287.44;;;2.29;61.09
24892;BME280;12954;50.688;10.908;2022-12-07T09:10:26;95286.91;;;2.03;61.25
24892;BME280;12954;50.688;10.908;2022-12-07T09:12:54;95213.97;;;1.53;61.93
24892;BME280;12954;50.688;10.908;2022-12-07T09:15:23;95292.31;;;2.20;61.05
24892;BME280;12954;50.688;10.908;2022-12-07T09:17:53;95290.84;;;2.12;61.47
24892;BME280;12954;50.688;10.908;2022-12-07T09:20:22;95290.28;;;2.10;60.89
24892;BME280;12954;50.688;10.908;2022-12-07T09:22:54;95238.94;;;1.52;61.73
24892;BME280;12954;50.688;10.908;2022-12-07T09:25:22;95280.31;;;1.71;62.34
24892;BME280;12954;50.688;10.908;2022-12-07T09:27:55;95294.41;;;1.83;62.33
24892;BME280;12954;50.688;10.908;2022-12-07T09:30:25;95290.75;;;1.96;61.79
24892;BME280;12954;50.688;10.908;2022-12-07T09:32:55;95258.94;;;1.54;62.23
24892;BME280;12954;50.688;10.908;2022-12-07T09:35:24;95292.13;;;1.75;62.55
24892;BME280;12954;50.688;10.908;2022-12-07T09:37:53;95285.38;;;1.84;62.53
24892;BME280;12954;50.688;10.908;2022-12-07T09:40:23;95282.06;;;1.77;62.76
24892;BME280;12954;50.688;10.908;2022-12-07T09:42:53;95288.66;;;1.86;62.43
24892;BME280;12954;50.688;10.908;2022-12-07T09:45:33;95288.03;;;1.84;62.48
24892;BME280;12954;50.688;10.908;2022-12-07T09:48:04;95287.47;;;1.82;62.68
24892;BME280;12954;50.688;10.908;2022-12-07T09:50:33;95287.28;;;1.95;62.59
24892;BME280;12954;50.688;10.908;2022-12-07T09:53:07;95289.91;;;2.07;61.86
24892;BME280;12954;50.688;10.908;2022-12-07T09:55:37;95264.38;;;1.94;61.62
24892;BME280;12954;50.688;10.908;2022-12-07T09:58:12;95282.28;;;2.10;61.33
24892;BME280;12954;50.688;10.908;2022-12-07T10:00:42;95282.63;;;2.02;61.55
24892;BME280;12954;50.688;10.908;2022-12-07T10:03:13;95277.19;;;2.09;61.55
24892;BME280;12954;50.688;10.908;2022-12-07T10:05:44;95279.94;;;2.14;60.80
24892;BME280;12954;50.688;10.908;2022-12-07T10:08:13;95274.28;;;2.22;60.31
24892;BME280;12954;50.688;10.908;2022-12-07T10:10:45;95283.50;;;2.19;60.45
24892;BME280;12954;50.688;10.908;2022-12-07T10:13:15;95246.47;;;2.30;58.58
24892;BME280;12954;50.688;10.908;2022-12-07T10:15:49;95225.97;;;1.90;59.42
24892;BME280;12954;50.688;10.908;2022-12-07T10:18:26;95255.47;;;2.00;60.08
24892;BME280;12954;50.688;10.908;2022-12-07T10:21:09;95269.75;;;2.11;60.70
24892;BME280;12954;50.688;10.908;2022-12-07T10:23:39;95265.25;;;2.11;60.64
24892;BME280;12954;50.688;10.908;2022-12-07T10:26:26;95267.69;;;2.25;60.07
24892;BME280;12954;50.688;10.908;2022-12-07T10:28:59;95250.00;;;2.18;59.91
24892;BME280;12954;50.688;10.908;2022-12-07T10:31:28;95235.47;;;1.86;60.33
24892;BME280;12954;50.688;10.908;2022-12-07T10:34:00;95237.28;;;2.09;60.05
24892;BME280;12954;50.688;10.908;2022-12-07T10:36:35;95256.66;;;2.33;59.70
24892;BME280;12954;50.688;10.908;2022-12-07T10:39:11;95252.75;;;2.24;60.15
24892;BME280;12954;50.688;10.908;2022-12-07T10:41:53;95237.06;;;2.10;60.55
24892;BME280;12954;50.688;10.908;2022-12-07T10:44:24;95242.78;;;2.31;60.58
24892;BME280;12954;50.688;10.908;2022-12-07T10:47:19;95251.34;;;2.33;60.68
24892;BME280;12954;50.688;10.908;2022-12-07T10:50:32;95260.56;;;2.42;60.88
24892;BME280;12954;50.688;10.908;2022-12-07T10:56:22;95261.22;;;2.49;60.20
24892;BME280;12954;50.688;10.908;2022-12-07T10:59:06;95247.94;;;2.37;61.20
24892;BME280;12954;50.688;10.908;2022-12-07T11:01:45;95260.66;;;2.47;61.63
24892;BME280;12954;50.688;10.908;2022-12-07T11:04:29;95252.53;;;2.53;61.61
24892;BME280;12954;50.688;10.908;2022-12-07T11:07:06;95258.03;;;2.63;61.50
24892;BME280;12954;50.688;10.908;2022-12-07T11:09:53;95255.16;;;2.65;61.96
24892;BME280;12954;50.688;10.908;2022-12-07T11:12:47;95237.31;;;2.65;61.42
24892;BME280;12954;50.688;10.908;2022-12-07T11:15:24;95241.03;;;2.64;61.18
24892;BME280;12954;50.688;10.908;2022-12-07T11:18:00;95248.06;;;2.70;60.75
24892;BME280;12954;50.688;10.908;2022-12-07T11:20:41;95238.97;;;2.55;59.75
24892;BME280;12954;50.688;10.908;2022-12-07T11:23:19;95241.16;;;2.30;60.48
24892;BME280;12954;50.688;10.908;2022-12-07T11:25:54;95249.13;;;2.30;60.29
24892;BME280;12954;50.688;10.908;2022-12-07T11:28:42;95246.34;;;2.36;59.71
24892;BME280;12954;50.688;10.908;2022-12-07T11:31:22;95248.34;;;2.17;60.49
24892;BME280;12954;50.688;10.908;2022-12-07T11:34:00;95256.66;;;2.33;60.11
24892;BME280;12954;50.688;10.908;2022-12-07T11:36:37;95215.78;;;2.10;60.19
24892;BME280;12954;50.688;10.908;2022-12-07T11:39:19;95223.00;;;2.27;59.67
24892;BME280;12954;50.688;10.908;2022-12-07T11:41:56;95249.69;;;2.32;59.95
24892;BME280;12954;50.688;10.908;2022-12-07T11:44:31;95241.16;;;2.30;59.67
24892;BME280;12954;50.688;10.908;2022-12-07T11:47:06;95230.88;;;2.22;60.31
24892;BME280;12954;50.688;10.908;2022-12-07T11:49:42;95238.75;;;2.28;60.22
24892;BME280;12954;50.688;10.908;2022-12-07T11:52:20;95228.41;;;2.32;59.94
24892;BME280;12954;50.688;10.908;2022-12-07T11:54:52;95231.84;;;2.44;59.32
24892;BME280;12954;50.688;10.908;2022-12-07T11:57:28;95225.19;;;2.30;59.93
24892;BME280;12954;50.688;10.908;2022-12-07T12:00:03;95222.13;;;2.38;59.87
24892;BME280;12954;50.688;10.908;2022-12-07T12:02:37;95210.94;;;2.36;59.95
24892;BME280;12954;50.688;10.908;2022-12-07T12:05:15;95223.44;;;2.35;60.14
24892;BME280;12954;50.688;10.908;2022-12-07T12:07:46;95215.06;;;2.43;59.79
24892;BME280;12954;50.688;10.908;2022-12-07T12:10:47;95219.72;;;2.36;59.97
24892;BME280;12954;50.688;10.908;2022-12-07T12:14:01;95219.34;;;2.44;59.39
24892;BME280;12954;50.688;10.908;2022-12-07T12:17:04;95213.69;;;2.41;59.63
24892;BME280;12954;50.688;10.908;2022-12-07T12:19:40;95194.88;;;2.31;59.63
24892;BME280;12954;50.688;10.908;2022-12-07T12:22:15;95191.63;;;2.29;59.76
24892;BME280;12954;50.688;10.908;2022-12-07T12:24:48;95205.94;;;2.39;59.83
24892;BME280;12954;50.688;10.908;2022-12-07T12:27:23;95208.19;;;2.31;60.09
24892;BME280;12954;50.688;10.908;2022-12-07T12:29:53;95205.81;;;2.06;60.90
24892;BME280;12954;50.688;10.908;2022-12-07T12:32:35;95162.50;;;1.82;61.01
24892;BME280;12954;50.688;10.908;2022-12-07T12:35:28;95203.50;;;2.09;61.05
24892;BME280;12954;50.688;10.908;2022-12-07T12:38:26;95162.56;;;2.10;60.59
24892;BME280;12954;50.688;10.908;2022-12-07T12:40:55;95194.50;;;2.10;61.45
24892;BME280;12954;50.688;10.908;2022-12-07T12:43:56;95193.22;;;2.13;61.66
24892;BME280;12954;50.688;10.908;2022-12-07T12:46:49;95198.97;;;2.22;61.64
24892;BME280;12954;50.688;10.908;2022-12-07T12:49:42;95195.81;;;2.25;61.81
24892;BME280;12954;50.688;10.908;2022-12-07T12:55:20;95197.53;;;2.31;61.51
24892;BME280;12954;50.688;10.908;2022-12-07T13:01:38;95180.50;;;2.32;61.02
24892;BME280;12954;50.688;10.908;2022-12-07T13:04:37;95193.63;;;2.22;61.57
24892;BME280;12954;50.688;10.908;2022-12-07T13:07:12;95202.44;;;2.22;62.03
24892;BME280;12954;50.688;10.908;2022-12-07T13:09:43;95197.41;;;2.26;61.89
24892;BME280;12954;50.688;10.908;2022-12-07T13:12:14;95191.44;;;2.18;61.80
24892;BME280;12954;50.688;10.908;2022-12-07T13:15:22;95193.16;;;2.25;61.61
24892;BME280;12954;50.688;10.908;2022-12-07T13:18:03;95186.56;;;2.27;61.99
24892;BME280;12954;50.688;10.908;2022-12-07T13:20:47;95173.13;;;2.34;61.40
24892;BME280;12954;50.688;10.908;2022-12-07T13:23:25;95139.75;;;2.14;61.35
24892;BME280;12954;50.688;10.908;2022-12-07T13:26:04;95172.16;;;2.40;60.02
24892;BME280;12954;50.688;10.908;2022-12-07T13:28:44;95171.50;;;2.33;59.68
24892;BME280;12954;50.688;10.908;2022-12-07T13:31:19;95170.44;;;2.34;58.94
24892;BME280;12954;50.688;10.908;2022-12-07T13:33:50;95165.00;;;2.29;57.97
24892;BME280;12954;50.688;10.908;2022-12-07T13:36:22;95180.03;;;2.06;58.47
24892;BME280;12954;50.688;10.908;2022-12-07T13:38:54;95176.25;;;1.91;59.43
24892;BME280;12954;50.688;10.908;2022-12-07T13:41:24;95150.50;;;1.68;59.14
24892;BME280;12954;50.688;10.908;2022-12-07T13:43:59;95176.25;;;1.79;59.59